Terminal Aerodrome Forecast
Issued by NWS

Home | Current Version | Previous Version | Text Only | Print | Product List | Glossary On
Versions: 1 2 3 4 5 6 7 8 9 10 11 12 13 14 15 16 17 18 19 20 21 22 23 24 25 26 27 28 29 30 31 32
000
FTUS45 KPSR 232340
TAFPHX
TAF
KPHX 232340Z 2400/2424 27016G26KT P6SM VCSH SCT070 BKN080 BKN100
     FM240030 27012G20KT P6SM BKN080 BKN100
     FM240300 24008KT P6SM FEW080
     FM241200 11004KT P6SM SKC
     FM242100 27007KT P6SM SKC=

USA.gov is the U.S. government's official web portal to all federal, state and local government web resources and services.